createdAt,value
2019-04-26T00:01:11.552Z,34.73
2019-04-26T00:03:45.228Z,29.90
2019-04-26T00:06:16.718Z,32.53
2019-04-26T00:08:55.049Z,29.93
2019-04-26T00:11:51.159Z,31.20
2019-04-26T00:14:59.959Z,38.70
2019-04-26T00:17:34.725Z,33.97
2019-04-26T00:20:06.743Z,28.87
2019-04-26T00:22:37.361Z,42.23
2019-04-26T00:25:08.209Z,36.30
2019-04-26T00:27:38.903Z,31.50
2019-04-26T00:30:10.690Z,28.80
2019-04-26T00:32:43.121Z,36.83
2019-04-26T00:35:14.033Z,35.20
2019-04-26T00:37:44.561Z,27.10
2019-04-26T00:40:16.222Z,34.53
2019-04-26T00:42:47.517Z,32.93
2019-04-26T00:45:18.809Z,32.40
2019-04-26T00:47:51.190Z,36.80
2019-04-26T00:50:23.240Z,26.83
2019-04-26T00:52:54.379Z,29.53
2019-04-26T00:55:25.348Z,30.07
2019-04-26T00:57:56.312Z,34.77
2019-04-26T01:00:26.788Z,31.10
2019-04-26T01:02:58.347Z,34.87
2019-04-26T01:05:30.879Z,29.50
2019-04-26T01:08:01.558Z,26.90
2019-04-26T01:10:32.172Z,28.47
2019-04-26T01:13:02.790Z,34.70
2019-04-26T01:15:33.253Z,29.57
2019-04-26T01:18:04.189Z,29.10
2019-04-26T01:20:36.613Z,26.27
2019-04-26T01:23:09.023Z,31.00
2019-04-26T01:25:44.311Z,27.63
2019-04-26T01:28:21.387Z,25.40
2019-04-26T01:30:52.911Z,27.77
2019-04-26T01:33:24.405Z,28.50
2019-04-26T01:35:55.865Z,29.83
2019-04-26T01:38:27.686Z,32.27
2019-04-26T01:41:01.671Z,26.33
2019-04-26T01:43:44.473Z,37.20
2019-04-26T01:46:22.072Z,35.20
2019-04-26T01:49:00.570Z,45.47
2019-04-26T01:52:02.186Z,37.30
2019-04-26T01:54:38.268Z,30.00
2019-04-26T01:57:09.421Z,34.73
2019-04-26T01:59:44.421Z,29.67
2019-04-26T02:02:37.201Z,27.27
2019-04-26T02:05:13.423Z,28.23
2019-04-26T02:07:44.500Z,24.33
2019-04-26T02:10:21.107Z,29.90
2019-04-26T02:12:54.576Z,23.20
2019-04-26T02:15:29.207Z,22.10
2019-04-26T02:18:01.139Z,27.20
2019-04-26T02:21:31.891Z,26.77
2019-04-26T02:24:26.414Z,26.17
2019-04-26T02:26:58.088Z,37.23
2019-04-26T02:29:29.095Z,25.90
2019-04-26T02:32:04.264Z,36.60
2019-04-26T02:34:38.039Z,35.73
2019-04-26T02:37:11.515Z,27.03
2019-04-26T02:39:43.579Z,27.87
2019-04-26T02:42:34.424Z,27.30
2019-04-26T02:45:36.793Z,25.83
2019-04-26T02:48:37.545Z,27.83
2019-04-26T02:51:13.577Z,30.20
2019-04-26T02:54:01.883Z,24.47
2019-04-26T02:56:43.855Z,25.97
2019-04-26T02:59:44.233Z,36.47
2019-04-26T03:02:25.943Z,29.20
2019-04-26T03:05:03.777Z,36.17
2019-04-26T03:08:04.392Z,34.07
2019-04-26T03:10:40.329Z,33.73
2019-04-26T03:13:22.374Z,34.13
2019-04-26T03:16:14.144Z,31.07
2019-04-26T03:18:55.560Z,45.03
2019-04-26T03:21:37.815Z,33.97
2019-04-26T03:24:21.334Z,35.00
2019-04-26T03:27:10.860Z,27.57
2019-04-26T03:30:18.223Z,34.77
2019-04-26T03:33:08.149Z,33.03
2019-04-26T03:36:19.200Z,34.30
2019-04-26T03:39:08.781Z,38.57
2019-04-26T03:42:18.940Z,36.37
2019-04-26T03:45:17.094Z,32.50
2019-04-26T03:48:27.514Z,28.47
2019-04-26T03:51:08.751Z,29.53
2019-04-26T03:53:56.825Z,35.27
2019-04-26T03:57:13.570Z,35.40
2019-04-26T04:00:14.949Z,28.47
2019-04-26T04:02:59.465Z,33.07
2019-04-26T04:05:40.122Z,34.53
2019-04-26T04:08:16.088Z,31.03
2019-04-26T04:10:54.747Z,36.10
2019-04-26T04:13:49.149Z,47.17
2019-04-26T04:16:39.186Z,56.60
2019-04-26T04:19:31.072Z,47.17
2019-04-26T04:22:06.689Z,51.37
2019-04-26T04:24:50.885Z,39.93
2019-04-26T04:27:49.260Z,54.90
2019-04-26T04:30:47.702Z,48.77
2019-04-26T04:33:37.596Z,48.70
2019-04-26T04:36:30.715Z,45.53
2019-04-26T04:39:12.220Z,30.97
2019-04-26T04:41:56.991Z,43.50
2019-04-26T04:45:28.897Z,50.57
2019-04-26T04:48:36.360Z,50.17
2019-04-26T04:51:40.872Z,58.53
2019-04-26T04:54:18.424Z,46.07
2019-04-26T04:57:38.128Z,42.60
2019-04-26T05:00:57.851Z,40.50
2019-04-26T05:03:53.091Z,46.07
2019-04-26T05:06:45.016Z,75.47
2019-04-26T05:09:23.661Z,43.30
2019-04-26T05:12:15.923Z,47.57
2019-04-26T05:15:18.979Z,57.43
2019-04-26T05:18:42.715Z,56.03
2019-04-26T05:21:29.984Z,59.73
2019-04-26T05:24:47.224Z,47.77
2019-04-26T05:27:59.986Z,54.03
2019-04-26T05:31:10.499Z,68.53
2019-04-26T05:34:23.407Z,52.27
2019-04-26T05:37:18.386Z,42.00
2019-04-26T05:40:49.672Z,41.10
2019-04-26T05:43:50.227Z,35.57
2019-04-26T05:47:19.324Z,33.23
2019-04-26T05:51:03.256Z,31.43
2019-04-26T05:54:13.133Z,41.07
2019-04-26T05:57:24.047Z,40.30
2019-04-26T06:00:45.647Z,36.50
2019-04-26T06:04:40.200Z,31.57
2019-04-26T06:07:31.720Z,29.53
2019-04-26T06:10:29.436Z,27.87
2019-04-26T06:13:35.042Z,27.67
2019-04-26T06:16:36.854Z,29.07
2019-04-26T06:19:24.692Z,35.47
2019-04-26T06:22:20.526Z,35.50
2019-04-26T06:25:35.792Z,31.90
2019-04-26T06:28:24.190Z,32.00
2019-04-26T06:31:03.467Z,27.93
2019-04-26T06:33:40.415Z,26.70
2019-04-26T06:36:18.168Z,28.50
2019-04-26T06:39:22.007Z,28.00
2019-04-26T06:42:31.241Z,45.10
2019-04-26T06:45:51.630Z,38.03
2019-04-26T06:48:40.431Z,32.97
2019-04-26T06:51:24.092Z,31.63
2019-04-26T06:54:21.127Z,33.80
2019-04-26T06:57:59.969Z,34.33
2019-04-26T07:01:08.045Z,33.97
2019-04-26T07:04:35.931Z,64.17
2019-04-26T07:07:28.170Z,52.30
2019-04-26T07:10:12.801Z,32.50
2019-04-26T07:12:56.548Z,41.93
2019-04-26T07:16:22.007Z,31.43
2019-04-26T07:19:05.928Z,26.43
2019-04-26T07:22:42.936Z,34.40
2019-04-26T07:26:01.716Z,30.57
2019-04-26T07:29:26.500Z,31.50
2019-04-26T07:32:05.305Z,39.97
2019-04-26T07:34:53.399Z,32.87
2019-04-26T07:37:41.948Z,22.47
2019-04-26T07:40:49.532Z,32.57
2019-04-26T07:43:51.102Z,49.93
2019-04-26T07:47:04.150Z,37.27
2019-04-26T07:50:11.518Z,26.00
2019-04-26T07:53:27.034Z,52.60
2019-04-26T07:56:26.644Z,52.03
2019-04-26T07:59:43.514Z,64.93
2019-04-26T08:02:37.885Z,36.07
2019-04-26T08:05:40.337Z,30.30
2019-04-26T08:08:13.587Z,24.17
2019-04-26T08:11:04.394Z,27.00
2019-04-26T08:13:38.541Z,36.20
2019-04-26T08:16:29.867Z,29.80
2019-04-26T08:19:06.992Z,28.73
2019-04-26T08:21:47.844Z,27.53
2019-04-26T08:24:21.846Z,26.90
2019-04-26T08:27:23.635Z,20.30
2019-04-26T08:30:03.433Z,22.30
2019-04-26T08:32:38.602Z,29.50
2019-04-26T08:35:21.751Z,20.97
2019-04-26T08:37:55.426Z,25.83
2019-04-26T08:40:31.083Z,26.87
2019-04-26T08:43:21.108Z,21.83
2019-04-26T08:46:18.274Z,27.53
2019-04-26T08:49:02.150Z,31.03
2019-04-26T08:51:33.540Z,19.90
2019-04-26T08:54:09.390Z,27.03
2019-04-26T08:56:44.307Z,20.40
2019-04-26T08:59:24.292Z,25.27
2019-04-26T09:02:16.510Z,27.83
2019-04-26T09:05:07.304Z,36.90
2019-04-26T09:07:40.728Z,22.50
2019-04-26T09:10:14.294Z,29.47
2019-04-26T09:12:47.564Z,24.00
2019-04-26T09:15:24.255Z,29.57
2019-04-26T09:17:54.777Z,27.40
2019-04-26T09:20:29.556Z,20.40
2019-04-26T09:23:39.806Z,19.30
2019-04-26T09:26:04.157Z,27.57
2019-04-26T09:28:56.511Z,23.93
2019-04-26T09:31:34.967Z,18.73
2019-04-26T09:34:10.418Z,22.30
2019-04-26T09:36:40.329Z,21.17
2019-04-26T09:39:35.153Z,24.53
2019-04-26T09:42:13.159Z,21.03
2019-04-26T09:45:00.327Z,26.07
2019-04-26T09:47:42.730Z,18.40
2019-04-26T09:50:22.523Z,27.30
2019-04-26T09:52:53.407Z,17.97
2019-04-26T09:55:34.775Z,23.93
2019-04-26T09:57:56.969Z,20.33
2019-04-26T10:00:29.794Z,26.40
2019-04-26T10:03:05.547Z,20.33
2019-04-26T10:05:34.618Z,24.13
2019-04-26T10:08:08.461Z,20.53
2019-04-26T10:10:37.690Z,19.53
2019-04-26T10:13:26.176Z,23.20
2019-04-26T10:16:07.940Z,19.17
2019-04-26T10:18:39.869Z,18.80
2019-04-26T10:21:10.779Z,21.07
2019-04-26T10:23:41.245Z,16.50
2019-04-26T10:26:12.068Z,15.27
2019-04-26T10:28:42.536Z,21.03
2019-04-26T10:31:13.632Z,27.50
2019-04-26T10:33:45.528Z,29.20
2019-04-26T10:36:16.169Z,20.93
2019-04-26T10:38:46.954Z,30.60
2019-04-26T10:41:17.604Z,19.87
2019-04-26T10:43:48.166Z,19.50
2019-04-26T10:46:18.786Z,15.57
2019-04-26T10:48:50.041Z,14.60
2019-04-26T10:51:30.627Z,23.00
2019-04-26T10:54:07.823Z,31.53
2019-04-26T10:56:42.807Z,19.93
2019-04-26T10:59:26.495Z,15.00
2019-04-26T11:01:56.989Z,13.17
2019-04-26T11:04:27.643Z,14.70
2019-04-26T11:07:01.852Z,58.60
2019-04-26T11:09:30.735Z,20.33
2019-04-26T11:12:01.219Z,16.00
2019-04-26T11:14:31.953Z,14.43
2019-04-26T11:17:03.405Z,15.67
2019-04-26T11:19:35.446Z,13.93
2019-04-26T11:22:06.347Z,16.90
2019-04-26T11:24:36.783Z,23.10
2019-04-26T11:27:09.727Z,17.97
2019-04-26T11:29:39.678Z,11.83
2019-04-26T11:32:10.588Z,17.00
2019-04-26T11:34:42.851Z,9.93
2019-04-26T11:37:17.545Z,14.67
2019-04-26T11:39:45.612Z,37.33
2019-04-26T11:42:16.417Z,31.00
2019-04-26T11:44:47.513Z,28.40
2019-04-26T11:47:18.516Z,11.77
2019-04-26T11:49:50.098Z,17.40
2019-04-26T11:52:21.044Z,14.43
2019-04-26T11:54:55.246Z,18.23
2019-04-26T11:57:23.684Z,15.07
2019-04-26T11:59:54.722Z,20.80
2019-04-26T12:02:25.162Z,14.03
2019-04-26T12:05:03.714Z,15.27
2019-04-26T12:07:41.530Z,40.23
2019-04-26T12:10:12.355Z,16.30
2019-04-26T12:12:46.484Z,22.97
2019-04-26T12:15:15.456Z,18.20
2019-04-26T12:17:58.076Z,17.50
2019-04-26T12:20:18.399Z,18.03
2019-04-26T12:22:50.029Z,23.37
2019-04-26T12:25:20.477Z,21.83
2019-04-26T12:27:53.447Z,19.20
2019-04-26T12:30:26.551Z,8.70
2019-04-26T12:32:56.247Z,12.37
2019-04-26T12:35:26.709Z,13.78
2019-04-26T12:37:57.323Z,12.55
2019-04-26T12:40:28.012Z,15.50
2019-04-26T12:42:58.918Z,24.32
2019-04-26T12:45:58.476Z,10.93
2019-04-26T12:48:29.157Z,17.50
2019-04-26T12:51:00.143Z,12.95
2019-04-26T12:53:32.653Z,11.78
2019-04-26T12:56:03.585Z,31.62
2019-04-26T12:58:33.983Z,15.10
2019-04-26T13:01:07.913Z,14.15
2019-04-26T13:03:38.961Z,16.52
2019-04-26T13:06:09.891Z,17.75
2019-04-26T13:08:40.456Z,10.43
2019-04-26T13:11:31.291Z,10.45
2019-04-26T13:14:16.065Z,14.53
2019-04-26T13:17:10.299Z,14.10
2019-04-26T13:19:40.748Z,23.95
2019-04-26T13:22:12.573Z,29.00
2019-04-26T13:24:43.234Z,23.25
2019-04-26T13:27:13.797Z,24.37
2019-04-26T13:29:44.242Z,25.23
2019-04-26T13:32:14.890Z,26.10
2019-04-26T13:34:45.380Z,23.22
2019-04-26T13:37:15.900Z,13.75
2019-04-26T13:39:46.556Z,11.03
2019-04-26T13:42:18.565Z,31.42
2019-04-26T13:44:57.741Z,17.15
2019-04-26T13:47:50.127Z,24.02
2019-04-26T13:50:36.937Z,20.80
2019-04-26T13:53:07.528Z,14.60
2019-04-26T13:55:38.056Z,18.52
2019-04-26T13:58:08.938Z,27.45
2019-04-26T14:00:39.796Z,49.75
2019-04-26T14:03:11.740Z,27.17
2019-04-26T14:05:43.245Z,20.02
2019-04-26T14:08:13.675Z,39.20
2019-04-26T14:10:45.548Z,32.15
2019-04-26T14:13:16.201Z,14.73
2019-04-26T14:15:50.363Z,16.17
2019-04-26T14:18:19.174Z,11.35
2019-04-26T14:20:49.786Z,16.25
2019-04-26T14:23:38.002Z,17.40
2019-04-26T14:26:11.359Z,14.75
2019-04-26T14:28:42.269Z,14.87
2019-04-26T14:31:16.465Z,23.02
2019-04-26T14:33:44.957Z,15.70
2019-04-26T14:36:17.925Z,16.70
2019-04-26T14:38:47.970Z,15.95
2019-04-26T14:41:22.574Z,12.70
2019-04-26T14:43:52.491Z,16.60
2019-04-26T14:46:23.682Z,20.35
2019-04-26T14:49:01.360Z,14.35
2019-04-26T14:51:26.794Z,16.32
2019-04-26T14:53:57.436Z,16.32
2019-04-26T14:56:29.464Z,16.82
2019-04-26T14:59:01.869Z,13.03
2019-04-26T15:02:02.682Z,18.50
2019-04-26T15:04:53.338Z,23.38
2019-04-26T15:07:23.930Z,29.75
2019-04-26T15:09:54.458Z,20.23
2019-04-26T15:12:24.954Z,18.05
2019-04-26T15:14:56.719Z,24.70
2019-04-26T15:17:27.582Z,19.60
2019-04-26T15:19:58.158Z,15.50
2019-04-26T15:22:28.655Z,18.07
2019-04-26T15:24:59.149Z,19.48
2019-04-26T15:27:32.237Z,13.50
2019-04-26T15:30:04.205Z,16.45
2019-04-26T15:32:35.345Z,17.92
2019-04-26T15:35:07.641Z,22.77
2019-04-26T15:37:38.426Z,28.45
2019-04-26T15:40:31.921Z,26.02
2019-04-26T15:43:16.636Z,27.13
2019-04-26T15:46:08.186Z,26.07
2019-04-26T15:48:50.392Z,25.68
2019-04-26T15:51:24.480Z,20.60
2019-04-26T15:53:54.469Z,36.50
2019-04-26T15:56:25.091Z,21.30
2019-04-26T15:58:55.553Z,18.05
2019-04-26T16:01:26.417Z,19.20
2019-04-26T16:03:57.043Z,20.45
2019-04-26T16:06:27.575Z,17.12
2019-04-26T16:08:58.096Z,17.15
2019-04-26T16:11:28.778Z,20.57
2019-04-26T16:13:59.349Z,18.05
2019-04-26T16:16:32.996Z,18.57
2019-04-26T16:19:02.967Z,19.27
2019-04-26T16:21:33.954Z,20.10
2019-04-26T16:24:04.927Z,17.03
2019-04-26T16:26:36.127Z,18.87
2019-04-26T16:29:24.172Z,19.10
2019-04-26T16:32:12.496Z,17.17
2019-04-26T16:34:47.566Z,6.57
2019-04-26T16:37:22.006Z,15.27
2019-04-26T16:39:49.677Z,19.77
2019-04-26T16:42:20.838Z,17.03
2019-04-26T16:44:53.153Z,26.17
2019-04-26T16:47:23.877Z,17.63
2019-04-26T16:49:54.820Z,13.23
2019-04-26T16:52:25.678Z,14.27
2019-04-26T16:55:02.314Z,16.93
2019-04-26T16:57:28.815Z,13.00
2019-04-26T17:00:00.279Z,19.43
2019-04-26T17:02:34.726Z,23.67
2019-04-26T17:05:16.814Z,17.77
2019-04-26T17:07:39.314Z,17.13
2019-04-26T17:10:09.853Z,23.50
2019-04-26T17:12:42.206Z,19.87
2019-04-26T17:15:13.287Z,22.27
2019-04-26T17:17:45.222Z,22.00
2019-04-26T17:20:17.794Z,22.93
2019-04-26T17:23:03.275Z,21.93
2019-04-26T17:26:04.142Z,23.80
2019-04-26T17:28:34.952Z,25.10
2019-04-26T17:31:05.690Z,23.23
2019-04-26T17:33:36.362Z,21.80
2019-04-26T17:36:06.945Z,20.93
2019-04-26T17:38:39.316Z,21.83
2019-04-26T17:41:12.664Z,15.47
2019-04-26T17:43:47.460Z,24.60
2019-04-26T17:46:18.167Z,19.67
2019-04-26T17:48:49.237Z,22.87
2019-04-26T17:51:22.838Z,24.83
2019-04-26T17:54:18.609Z,23.40
2019-04-26T17:56:26.094Z,20.63
2019-04-26T17:58:56.879Z,25.43
2019-04-26T18:01:43.862Z,22.33
2019-04-26T18:04:00.784Z,20.43
2019-04-26T18:06:31.769Z,23.50
2019-04-26T18:09:02.675Z,18.00
2019-04-26T18:11:35.042Z,24.03
2019-04-26T18:14:08.172Z,21.20
2019-04-26T18:16:42.714Z,17.00
2019-04-26T18:19:38.817Z,19.60
2019-04-26T18:22:24.274Z,23.37
2019-04-26T18:24:55.132Z,27.33
2019-04-26T18:27:25.816Z,27.30
2019-04-26T18:29:59.867Z,24.07
2019-04-26T18:32:29.024Z,22.43
2019-04-26T18:34:59.628Z,22.80
2019-04-26T18:37:30.488Z,21.37
2019-04-26T18:40:04.471Z,19.33
2019-04-26T18:42:37.586Z,32.47
2019-04-26T18:45:08.433Z,37.87
2019-04-26T18:47:41.433Z,54.20
2019-04-26T18:50:12.665Z,44.93
2019-04-26T18:52:56.501Z,33.07
2019-04-26T18:55:29.869Z,33.37
2019-04-26T18:58:03.640Z,30.13
2019-04-26T19:00:36.708Z,37.87
2019-04-26T19:03:07.528Z,40.13
2019-04-26T19:05:38.591Z,41.50
2019-04-26T19:08:10.100Z,45.90
2019-04-26T19:10:43.180Z,43.10
2019-04-26T19:13:30.946Z,41.13
2019-04-26T19:16:21.889Z,39.73
2019-04-26T19:18:58.035Z,45.80
2019-04-26T19:21:45.974Z,35.97
2019-04-26T19:24:19.777Z,43.60
2019-04-26T19:26:49.933Z,38.70
2019-04-26T19:29:27.409Z,34.50
2019-04-26T19:31:56.648Z,31.50
2019-04-26T19:34:26.079Z,34.50
2019-04-26T19:36:59.741Z,41.60
2019-04-26T19:39:35.041Z,49.53
2019-04-26T19:42:05.985Z,66.67
2019-04-26T19:44:36.045Z,67.07
2019-04-26T19:47:25.886Z,67.50
2019-04-26T19:50:17.951Z,62.73
2019-04-26T19:53:10.329Z,54.53
2019-04-26T19:56:01.572Z,57.70
2019-04-26T19:58:32.982Z,47.43
2019-04-26T20:01:04.386Z,54.80
2019-04-26T20:03:35.320Z,46.93
2019-04-26T20:06:06.058Z,51.73
2019-04-26T20:08:44.052Z,47.63
2019-04-26T20:11:12.878Z,44.20
2019-04-26T20:13:46.856Z,43.13
2019-04-26T20:16:15.701Z,38.77
2019-04-26T20:18:46.666Z,44.67
2019-04-26T20:21:17.649Z,36.83
2019-04-26T20:23:48.866Z,40.13
2019-04-26T20:26:19.376Z,47.07
2019-04-26T20:28:51.404Z,30.13
2019-04-26T20:31:47.483Z,32.13
2019-04-26T20:34:18.409Z,37.90
2019-04-26T20:36:49.084Z,29.87
2019-04-26T20:39:20.870Z,29.33
2019-04-26T20:42:00.980Z,36.50
2019-04-26T20:44:39.203Z,38.53
2019-04-26T20:47:00.638Z,37.87
2019-04-26T20:49:32.202Z,36.50
2019-04-26T20:52:03.001Z,45.77
2019-04-26T20:54:33.757Z,40.20
2019-04-26T20:57:04.301Z,38.77
2019-04-26T20:59:35.375Z,37.17
2019-04-26T21:02:08.056Z,40.37
2019-04-26T21:04:44.241Z,38.63
2019-04-26T21:07:14.216Z,37.20
2019-04-26T21:09:44.871Z,32.47
2019-04-26T21:12:18.351Z,39.87
2019-04-26T21:14:48.453Z,44.50
2019-04-26T21:17:19.477Z,40.17
2019-04-26T21:19:54.918Z,35.83
2019-04-26T21:22:28.391Z,34.67
2019-04-26T21:25:04.320Z,39.23
2019-04-26T21:28:02.395Z,34.97
2019-04-26T21:30:46.744Z,40.23
2019-04-26T21:33:28.795Z,39.50
2019-04-26T21:36:05.941Z,35.67
2019-04-26T21:38:47.814Z,32.87
2019-04-26T21:41:23.466Z,42.70
2019-04-26T21:43:53.820Z,37.20
2019-04-26T21:46:24.615Z,40.60
2019-04-26T21:48:55.776Z,32.27
2019-04-26T21:51:26.702Z,44.20
2019-04-26T21:53:57.704Z,35.00
2019-04-26T21:56:28.265Z,38.10
2019-04-26T21:58:59.024Z,27.07
2019-04-26T22:01:30.034Z,31.70
2019-04-26T22:04:03.018Z,28.93
2019-04-26T22:06:34.786Z,37.93
2019-04-26T22:09:16.935Z,47.57
2019-04-26T22:11:49.396Z,49.57
2019-04-26T22:14:24.239Z,38.00
2019-04-26T22:17:13.763Z,35.73
2019-04-26T22:20:06.662Z,38.07
2019-04-26T22:23:06.283Z,49.63
2019-04-26T22:25:39.083Z,46.57
2019-04-26T22:28:09.852Z,37.67
2019-04-26T22:30:41.408Z,37.30
2019-04-26T22:33:13.241Z,32.10
2019-04-26T22:35:44.029Z,36.37
2019-04-26T22:38:17.553Z,40.50
2019-04-26T22:40:48.521Z,44.20
2019-04-26T22:43:35.379Z,42.70
2019-04-26T22:46:29.720Z,37.63
2019-04-26T22:49:01.216Z,34.83
2019-04-26T22:51:33.660Z,37.73
2019-04-26T22:54:06.076Z,35.40
2019-04-26T22:56:37.246Z,34.73
2019-04-26T22:59:08.400Z,44.57
2019-04-26T23:01:43.637Z,35.57
2019-04-26T23:04:15.670Z,41.73
2019-04-26T23:06:46.872Z,39.80
2019-04-26T23:09:20.444Z,41.13
2019-04-26T23:11:55.356Z,34.60
2019-04-26T23:14:33.704Z,38.40
2019-04-26T23:17:37.278Z,37.40
2019-04-26T23:20:19.120Z,37.07
2019-04-26T23:22:49.780Z,39.60
2019-04-26T23:25:20.348Z,39.23
2019-04-26T23:27:56.064Z,48.00
2019-04-26T23:30:23.189Z,39.63
2019-04-26T23:32:53.755Z,43.03
2019-04-26T23:35:24.486Z,42.30
2019-04-26T23:37:56.640Z,46.90
2019-04-26T23:40:28.986Z,47.87
2019-04-26T23:42:59.754Z,41.47
2019-04-26T23:45:30.230Z,39.60
2019-04-26T23:48:01.252Z,44.93
2019-04-26T23:50:31.800Z,40.27
2019-04-26T23:53:03.021Z,39.07
2019-04-26T23:55:34.085Z,48.60
2019-04-26T23:58:10.241Z,48.23
